Time;durP1;ratioP1;P1;durP2;ratioP2;P2;SDS_P1;SDS_P2;PMS_P1;PMS_P2;Temp;Humidity;BMP_temperature;BMP_pressure;BME280_temperature;BME280_humidity;BME280_pressure;Samples;Min_cycle;Max_cycle;Signal;HPM_P1;HPM_P2
2021/12/30 00:00:34;;;;;;;0.70;0.70;;;11.00;99.90;;;;;;5030013;28;20052;-79
2021/12/30 00:02:59;;;;;;;1.27;0.80;;;11.10;99.90;;;;;;5029750;28;20490;-79
2021/12/30 00:05:25;;;;;;;1.57;0.80;;;11.10;99.90;;;;;;5030009;28;20042;-79
2021/12/30 00:07:51;;;;;;;0.93;0.70;;;11.00;99.90;;;;;;5028588;28;20075;-79
2021/12/30 00:10:17;;;;;;;0.60;0.60;;;11.00;99.90;;;;;;5036825;28;20017;-79
2021/12/30 00:12:43;;;;;;;0.70;0.70;;;11.00;99.90;;;;;;5033306;28;20033;-79
2021/12/30 00:15:10;;;;;;;0.83;0.70;;;11.00;99.90;;;;;;5029748;28;20047;-79
2021/12/30 00:17:36;;;;;;;0.80;0.80;;;11.00;99.90;;;;;;5029054;28;20030;-79
2021/12/30 00:20:06;;;;;;;1.40;0.60;;;11.00;99.90;;;;;;5029793;28;20029;-79
2021/12/30 00:22:32;;;;;;;1.00;0.90;;;11.10;99.90;;;;;;5029551;28;20441;-79
2021/12/30 00:24:58;;;;;;;1.07;0.70;;;11.00;99.90;;;;;;5045483;28;20025;-79
2021/12/30 00:27:23;;;;;;;0.83;0.70;;;10.90;99.90;;;;;;5049633;28;20481;-79
2021/12/30 00:29:49;;;;;;;1.07;0.90;;;10.90;99.90;;;;;;5049617;28;20037;-78
2021/12/30 00:32:15;;;;;;;0.60;0.60;;;11.00;99.90;;;;;;5049713;28;20021;-78
2021/12/30 00:34:40;;;;;;;0.80;0.60;;;11.00;99.90;;;;;;5049331;28;20108;-78
2021/12/30 00:37:06;;;;;;;0.60;0.50;;;11.00;99.90;;;;;;5032085;28;20034;-78
2021/12/30 00:39:31;;;;;;;0.60;0.60;;;11.00;99.90;;;;;;5029653;28;20533;-79
2021/12/30 00:41:57;;;;;;;0.50;0.50;;;11.00;99.90;;;;;;5025018;28;20092;-79
2021/12/30 00:44:23;;;;;;;0.80;0.80;;;11.00;99.90;;;;;;5018272;28;20141;-78
2021/12/30 00:46:48;;;;;;;1.10;0.53;;;11.00;99.90;;;;;;5010840;28;20038;-79
2021/12/30 00:49:14;;;;;;;0.80;0.57;;;11.00;99.90;;;;;;5032756;28;20107;-79
2021/12/30 00:51:40;;;;;;;0.60;0.60;;;11.00;99.90;;;;;;5029660;28;20406;-79
2021/12/30 00:54:06;;;;;;;0.60;0.60;;;11.00;99.90;;;;;;5029537;28;20091;-78
2021/12/30 00:56:31;;;;;;;0.73;0.60;;;11.00;99.90;;;;;;5044724;28;20029;-79
2021/12/30 00:58:57;;;;;;;0.67;0.60;;;11.00;99.90;;;;;;5049130;28;20060;-79
2021/12/30 01:01:24;;;;;;;0.50;0.50;;;11.00;99.90;;;;;;5049561;28;20033;-78
2021/12/30 01:03:51;;;;;;;0.63;0.63;;;11.00;99.90;;;;;;5041713;28;20125;-80
2021/12/30 01:06:16;;;;;;;0.50;0.50;;;10.90;99.90;;;;;;5029767;28;20458;-79
2021/12/30 01:08:42;;;;;;;0.70;0.70;;;10.90;99.90;;;;;;5029007;28;20044;-79
2021/12/30 01:11:11;;;;;;;0.70;0.70;;;10.90;99.90;;;;;;5028026;28;20033;-79
2021/12/30 01:13:43;;;;;;;0.60;0.60;;;11.00;99.90;;;;;;5029337;28;20534;-78
2021/12/30 01:16:19;;;;;;;0.70;0.70;;;11.10;99.90;;;;;;5043486;28;20029;-79
2021/12/30 01:19:03;;;;;;;1.20;0.80;;;11.10;99.90;;;;;;5047707;28;20025;-79
2021/12/30 01:21:34;;;;;;;0.82;0.70;;;11.10;99.90;;;;;;5049295;28;20052;-78
2021/12/30 01:24:02;;;;;;;0.70;0.60;;;11.00;99.90;;;;;;5049008;28;20041;-79
2021/12/30 01:26:27;;;;;;;0.67;0.67;;;11.10;99.90;;;;;;5047390;28;20043;-79
2021/12/30 01:28:53;;;;;;;0.60;0.60;;;11.20;99.90;;;;;;5029479;28;20045;-79
2021/12/30 01:31:19;;;;;;;0.57;0.57;;;11.10;99.90;;;;;;5031624;28;20021;-79
2021/12/30 01:33:47;;;;;;;0.57;0.53;;;11.10;99.90;;;;;;5032430;28;20048;-79
2021/12/30 01:36:13;;;;;;;0.70;0.70;;;11.30;99.90;;;;;;5032592;28;20022;-79
2021/12/30 01:38:40;;;;;;;1.03;0.67;;;11.20;99.90;;;;;;5032542;28;20036;-80
2021/12/30 01:41:07;;;;;;;0.50;0.50;;;11.20;99.90;;;;;;5034218;28;20064;-80
2021/12/30 01:43:35;;;;;;;1.80;0.70;;;11.20;99.90;;;;;;5025582;28;20033;-80
2021/12/30 01:46:01;;;;;;;0.60;0.60;;;11.20;99.90;;;;;;5014667;28;20025;-80
2021/12/30 01:48:27;;;;;;;0.60;0.60;;;11.20;99.90;;;;;;5050741;28;20021;-80
2021/12/30 01:50:52;;;;;;;0.50;0.50;;;11.20;99.90;;;;;;5053069;28;20024;-80
2021/12/30 01:53:18;;;;;;;0.70;0.67;;;11.30;99.90;;;;;;5052464;28;20025;-79
2021/12/30 01:55:45;;;;;;;0.43;0.43;;;11.30;99.90;;;;;;5033485;28;20080;-79
2021/12/30 01:58:13;;;;;;;0.50;0.50;;;11.20;99.90;;;;;;5032594;28;20363;-79
2021/12/30 02:00:43;;;;;;;0.60;0.60;;;11.20;99.90;;;;;;5032631;28;20489;-79
2021/12/30 02:03:09;;;;;;;0.47;0.47;;;11.20;99.90;;;;;;5032313;28;20429;-78
2021/12/30 02:05:37;;;;;;;0.40;0.40;;;11.30;99.90;;;;;;5032736;28;20022;-79
2021/12/30 02:08:04;;;;;;;0.77;0.50;;;11.30;99.90;;;;;;5027566;28;20026;-78
2021/12/30 02:10:30;;;;;;;0.77;0.50;;;11.30;99.90;;;;;;5047913;28;20500;-79
2021/12/30 02:12:56;;;;;;;0.50;0.50;;;11.30;99.90;;;;;;5051823;28;20040;-78
2021/12/30 02:15:22;;;;;;;0.50;0.50;;;11.30;99.90;;;;;;5050738;28;20363;-78
2021/12/30 02:17:49;;;;;;;1.37;0.50;;;11.20;99.90;;;;;;5052030;28;20028;-79
2021/12/30 02:20:52;;;;;;;1.27;1.03;;;11.20;99.90;;;;;;5051968;28;20025;-79
2021/12/30 02:23:22;;;;;;;0.50;0.50;;;11.30;99.90;;;;;;5041438;28;20080;-79
2021/12/30 02:25:49;;;;;;;0.60;0.60;;;11.30;99.90;;;;;;5031656;28;20036;-79
2021/12/30 02:28:17;;;;;;;0.90;0.60;;;11.30;99.90;;;;;;5031572;28;20033;-79
2021/12/30 02:30:43;;;;;;;1.50;0.60;;;11.30;99.90;;;;;;5032004;28;20071;-79
2021/12/30 02:33:09;;;;;;;1.03;0.70;;;11.30;99.90;;;;;;5031685;28;20029;-79
2021/12/30 02:35:35;;;;;;;0.57;0.57;;;11.30;99.90;;;;;;5050925;28;20100;-79
2021/12/30 02:38:01;;;;;;;1.13;0.70;;;11.30;99.90;;;;;;5051474;28;20108;-79
2021/12/30 02:40:35;;;;;;;0.87;0.60;;;11.30;99.90;;;;;;5049072;28;20040;-79
2021/12/30 02:43:01;;;;;;;0.80;0.80;;;11.30;99.90;;;;;;5029132;28;20060;-78
2021/12/30 02:45:26;;;;;;;0.60;0.60;;;11.40;99.90;;;;;;5017200;28;20359;-79
2021/12/30 02:47:52;;;;;;;0.83;0.60;;;11.40;99.90;;;;;;5042645;28;20029;-79
2021/12/30 02:50:18;;;;;;;0.97;0.53;;;11.40;99.90;;;;;;5032422;28;20030;-79
2021/12/30 02:52:44;;;;;;;0.88;0.65;;;11.50;99.90;;;;;;5029891;28;20024;-79
2021/12/30 02:55:10;;;;;;;0.80;0.63;;;11.50;99.90;;;;;;5031286;28;20030;-79
2021/12/30 02:57:36;;;;;;;1.43;1.13;;;11.40;99.90;;;;;;5035653;28;20037;-78
2021/12/30 03:00:04;;;;;;;1.50;0.60;;;11.40;99.90;;;;;;5051153;28;20082;-79
2021/12/30 03:02:30;;;;;;;1.40;0.60;;;11.40;99.90;;;;;;5050812;28;20029;-78
2021/12/30 03:04:56;;;;;;;0.50;0.50;;;11.40;99.90;;;;;;5050958;28;20082;-79
2021/12/30 03:07:22;;;;;;;1.50;0.70;;;11.40;99.90;;;;;;5051248;28;20029;-79
2021/12/30 03:09:48;;;;;;;1.30;0.60;;;11.40;99.90;;;;;;5043966;28;20018;-79
2021/12/30 03:12:14;;;;;;;0.60;0.60;;;11.30;99.90;;;;;;5029541;28;20172;-79
2021/12/30 03:14:43;;;;;;;0.90;0.70;;;11.30;99.90;;;;;;5049866;28;20033;-80
2021/12/30 03:17:09;;;;;;;0.60;0.60;;;11.30;99.90;;;;;;5050745;28;20059;-79
2021/12/30 03:19:34;;;;;;;0.60;0.60;;;11.30;99.90;;;;;;5050672;28;20032;-79
2021/12/30 03:22:00;;;;;;;0.63;0.60;;;11.30;99.90;;;;;;5040941;28;20017;-79
2021/12/30 03:24:26;;;;;;;1.53;0.70;;;11.20;99.90;;;;;;5031515;28;20029;-79
2021/12/30 03:26:52;;;;;;;0.70;0.70;;;11.10;99.90;;;;;;5030398;28;20025;-79
2021/12/30 03:29:18;;;;;;;0.80;0.60;;;11.10;99.90;;;;;;5031707;28;20098;-78
2021/12/30 03:31:43;;;;;;;0.60;0.60;;;11.10;99.90;;;;;;5032310;28;20032;-79
2021/12/30 03:34:09;;;;;;;0.93;0.50;;;11.10;99.90;;;;;;5033364;28;20033;-79
2021/12/30 03:36:35;;;;;;;2.80;0.57;;;11.10;99.90;;;;;;5031490;28;20131;-79
2021/12/30 03:39:01;;;;;;;0.50;0.50;;;11.10;99.90;;;;;;5031251;28;20534;-79
2021/12/30 03:41:29;;;;;;;0.47;0.47;;;11.10;99.90;;;;;;5032673;28;20501;-78
2021/12/30 03:43:59;;;;;;;0.43;0.37;;;11.10;99.90;;;;;;5020679;28;20113;-79
2021/12/30 03:46:24;;;;;;;0.47;0.47;;;11.10;99.90;;;;;;5011613;28;20037;-79
2021/12/30 03:48:50;;;;;;;0.50;0.40;;;11.10;99.90;;;;;;5010876;28;20084;-79
2021/12/30 03:51:23;;;;;;;0.40;0.40;;;11.10;99.90;;;;;;5011167;28;20021;-79
2021/12/30 03:53:53;;;;;;;0.97;0.60;;;11.10;99.90;;;;;;5034170;28;20540;-78
2021/12/30 03:56:23;;;;;;;0.53;0.50;;;11.20;99.90;;;;;;5050709;28;20048;-79
2021/12/30 03:58:49;;;;;;;0.70;0.60;;;11.20;99.90;;;;;;5050546;28;20390;-78
2021/12/30 04:01:17;;;;;;;0.80;0.60;;;11.10;99.90;;;;;;5042033;28;20055;-79
2021/12/30 04:03:43;;;;;;;0.93;0.60;;;11.10;99.90;;;;;;5030548;28;20025;-78
2021/12/30 04:06:10;;;;;;;0.90;0.80;;;11.20;99.90;;;;;;5030519;28;20136;-79
2021/12/30 04:08:36;;;;;;;1.90;0.77;;;11.20;99.90;;;;;;5030074;28;20029;-79
2021/12/30 04:11:02;;;;;;;1.77;0.70;;;11.20;99.90;;;;;;5030313;28;20382;-79
2021/12/30 04:13:29;;;;;;;1.07;0.60;;;11.20;99.90;;;;;;5040801;28;20029;-79
2021/12/30 04:15:54;;;;;;;0.60;0.60;;;11.20;99.90;;;;;;5050473;28;20029;-80
2021/12/30 04:18:20;;;;;;;1.40;0.80;;;11.10;99.90;;;;;;5050128;28;20142;-80
2021/12/30 04:20:47;;;;;;;1.57;0.73;;;11.10;99.90;;;;;;5048380;28;20057;-80
2021/12/30 04:23:14;;;;;;;0.97;0.77;;;11.10;99.90;;;;;;5031796;28;20033;-80
2021/12/30 04:25:40;;;;;;;0.40;0.40;;;11.10;99.90;;;;;;5030023;28;20041;-80
2021/12/30 04:28:05;;;;;;;0.60;0.60;;;11.10;99.90;;;;;;5030092;28;20522;-79
2021/12/30 04:30:31;;;;;;;0.60;0.60;;;11.10;99.90;;;;;;5030061;28;20034;-80
2021/12/30 04:32:57;;;;;;;1.23;0.70;;;11.10;99.90;;;;;;5036675;28;20028;-79
2021/12/30 04:35:23;;;;;;;0.77;0.60;;;11.00;99.90;;;;;;5049705;28;20017;-79
2021/12/30 04:37:48;;;;;;;0.97;0.80;;;11.00;99.90;;;;;;5049456;28;20075;-79
2021/12/30 04:40:14;;;;;;;1.60;0.70;;;11.00;99.90;;;;;;5049812;28;20530;-79
2021/12/30 04:42:41;;;;;;;0.80;0.60;;;11.00;99.90;;;;;;5029942;28;20045;-78
2021/12/30 04:45:07;;;;;;;1.13;0.67;;;11.00;99.90;;;;;;5036262;28;20116;-79
2021/12/30 04:47:33;;;;;;;1.73;0.80;;;10.90;99.90;;;;;;5049565;28;20026;-78
2021/12/30 04:49:59;;;;;;;0.67;0.60;;;10.90;99.90;;;;;;5049725;28;20033;-78
2021/12/30 04:52:26;;;;;;;0.90;0.60;;;10.90;99.90;;;;;;5049354;28;20370;-79
2021/12/30 04:54:51;;;;;;;1.10;0.60;;;11.00;99.90;;;;;;5048124;28;20036;-79
2021/12/30 04:57:17;;;;;;;7.70;0.70;;;11.00;99.90;;;;;;5048581;28;20021;-79
2021/12/30 04:59:43;;;;;;;1.27;0.60;;;11.00;99.90;;;;;;5049500;28;20031;-79
2021/12/30 05:02:09;;;;;;;0.50;0.50;;;11.00;99.90;;;;;;5049575;28;20025;-79
2021/12/30 05:04:35;;;;;;;0.70;0.70;;;11.00;99.90;;;;;;5043313;28;20088;-79
2021/12/30 05:07:00;;;;;;;0.63;0.57;;;10.90;99.90;;;;;;5037255;28;20208;-79
2021/12/30 05:09:26;;;;;;;0.90;0.70;;;11.00;99.90;;;;;;5052122;28;20032;-79
2021/12/30 05:11:52;;;;;;;0.50;0.50;;;10.90;99.90;;;;;;5053515;28;20025;-79
2021/12/30 05:14:17;;;;;;;0.80;0.70;;;10.90;99.90;;;;;;5052983;28;20020;-79
2021/12/30 05:16:44;;;;;;;0.70;0.70;;;10.90;99.90;;;;;;5051739;28;20032;-79
2021/12/30 05:19:10;;;;;;;0.60;0.60;;;10.90;99.90;;;;;;5046673;28;20453;-79
2021/12/30 05:21:35;;;;;;;1.77;0.80;;;10.90;99.90;;;;;;5033365;28;20104;-79
2021/12/30 05:24:01;;;;;;;1.97;0.60;;;10.90;99.90;;;;;;5033156;28;20113;-78
2021/12/30 05:26:28;;;;;;;1.90;0.70;;;10.90;99.90;;;;;;5037241;28;20025;-78
2021/12/30 05:28:55;;;;;;;0.60;0.60;;;10.90;99.90;;;;;;5052693;28;20378;-79
2021/12/30 05:31:21;;;;;;;0.60;0.60;;;10.90;99.90;;;;;;5049106;28;20021;-79
2021/12/30 05:33:47;;;;;;;0.97;0.83;;;10.90;99.90;;;;;;5052918;28;20078;-79
2021/12/30 05:36:12;;;;;;;1.47;0.70;;;10.90;99.90;;;;;;5053050;28;20060;-80
2021/12/30 05:38:38;;;;;;;1.17;0.60;;;11.00;99.90;;;;;;5049636;28;20059;-80
2021/12/30 05:41:03;;;;;;;0.50;0.50;;;11.00;99.90;;;;;;5031727;28;20089;-81
2021/12/30 05:43:29;;;;;;;1.97;0.60;;;11.00;99.90;;;;;;5027911;28;20484;-81
2021/12/30 05:45:55;;;;;;;1.00;0.70;;;11.00;99.90;;;;;;5051510;28;20029;-81
2021/12/30 05:48:20;;;;;;;0.70;0.70;;;11.00;99.90;;;;;;5052341;28;20562;-81
2021/12/30 05:50:46;;;;;;;1.55;0.80;;;11.10;99.90;;;;;;5052790;28;20029;-81
2021/12/30 05:53:12;;;;;;;0.50;0.50;;;11.10;99.90;;;;;;5052681;28;20044;-81
2021/12/30 05:55:37;;;;;;;0.73;0.70;;;11.10;99.90;;;;;;5047199;28;20105;-79
2021/12/30 05:58:03;;;;;;;0.70;0.70;;;11.10;99.90;;;;;;5035564;28;20491;-75
2021/12/30 06:00:31;;;;;;;2.50;1.00;;;11.10;99.90;;;;;;5035261;28;20033;-75
2021/12/30 06:02:57;;;;;;;1.20;1.10;;;11.10;99.90;;;;;;5033864;28;20029;-75
2021/12/30 06:05:23;;;;;;;1.20;0.73;;;11.10;99.90;;;;;;5033841;28;20065;-75
2021/12/30 06:07:49;;;;;;;1.33;0.80;;;11.10;99.90;;;;;;5035106;28;20033;-75
2021/12/30 06:10:15;;;;;;;1.37;0.77;;;11.20;99.90;;;;;;5035121;28;20036;-75
2021/12/30 06:12:43;;;;;;;1.10;0.60;;;11.20;99.90;;;;;;5035116;28;20021;-74
2021/12/30 06:15:10;;;;;;;0.77;0.70;;;11.20;99.90;;;;;;5035246;28;20025;-75
2021/12/30 06:17:37;;;;;;;1.50;0.70;;;11.30;99.90;;;;;;5033670;28;20029;-75
2021/12/30 06:20:08;;;;;;;1.92;0.80;;;11.30;99.90;;;;;;5034831;28;20089;-75
2021/12/30 06:22:34;;;;;;;1.50;0.77;;;11.20;99.90;;;;;;5033647;28;20087;-74
2021/12/30 06:24:59;;;;;;;0.70;0.70;;;11.20;99.90;;;;;;5034086;28;20033;-75
2021/12/30 06:27:25;;;;;;;2.90;1.10;;;11.10;99.90;;;;;;5033589;28;20036;-74
2021/12/30 06:29:50;;;;;;;1.27;0.90;;;11.10;99.90;;;;;;5034807;28;20022;-74
2021/12/30 06:32:16;;;;;;;2.33;0.90;;;11.10;99.90;;;;;;5041091;28;20028;-78
2021/12/30 06:34:42;;;;;;;2.55;1.05;;;11.10;99.90;;;;;;5051703;28;20404;-80
2021/12/30 06:37:07;;;;;;;1.20;0.90;;;11.10;99.90;;;;;;5051644;28;20021;-81
2021/12/30 06:39:33;;;;;;;1.73;0.87;;;11.00;99.90;;;;;;5050371;28;20031;-80
2021/12/30 06:41:58;;;;;;;1.08;0.80;;;11.00;99.90;;;;;;5039234;28;20059;-81
2021/12/30 06:44:24;;;;;;;1.10;0.90;;;11.00;99.90;;;;;;5031625;28;20025;-80
2021/12/30 06:46:56;;;;;;;1.30;0.90;;;11.00;99.90;;;;;;5032215;28;20030;-76
2021/12/30 06:49:22;;;;;;;2.20;0.80;;;11.00;99.90;;;;;;5034430;28;20026;-76
2021/12/30 06:51:48;;;;;;;1.63;0.80;;;11.00;99.90;;;;;;5034646;28;20030;-76
2021/12/30 06:54:14;;;;;;;1.00;0.70;;;11.00;99.90;;;;;;5034379;28;20091;-76
2021/12/30 06:56:42;;;;;;;1.45;0.90;;;11.10;99.90;;;;;;5034355;28;20534;-75
2021/12/30 06:59:07;;;;;;;0.70;0.70;;;11.20;99.90;;;;;;5034646;28;20033;-76
2021/12/30 07:01:33;;;;;;;1.10;1.00;;;11.20;99.90;;;;;;5034563;28;20045;-76
2021/12/30 07:03:59;;;;;;;3.10;0.80;;;11.20;99.90;;;;;;5034701;28;20068;-76
2021/12/30 07:06:24;;;;;;;0.65;0.65;;;11.20;99.90;;;;;;5034477;28;20112;-76
2021/12/30 07:08:50;;;;;;;2.05;0.63;;;11.30;99.90;;;;;;5033876;28;20026;-67
2021/12/30 07:11:15;;;;;;;1.40;0.90;;;11.40;99.90;;;;;;5034254;28;20053;-74
2021/12/30 07:13:41;;;;;;;0.82;0.70;;;11.40;99.90;;;;;;5034134;28;20503;-74
2021/12/30 07:16:07;;;;;;;1.40;0.90;;;11.50;99.90;;;;;;5033798;28;20060;-74
2021/12/30 07:18:33;;;;;;;1.13;0.80;;;11.40;99.90;;;;;;5034071;28;20029;-75
2021/12/30 07:20:58;;;;;;;0.80;0.77;;;11.50;99.90;;;;;;5033919;28;20033;-75
2021/12/30 07:23:24;;;;;;;1.45;0.93;;;11.50;99.90;;;;;;5032562;28;20026;-75
2021/12/30 07:25:49;;;;;;;1.17;0.60;;;11.50;99.90;;;;;;5034296;28;20025;-75
2021/12/30 07:28:15;;;;;;;1.77;0.60;;;11.50;99.90;;;;;;5031914;28;20021;-75
2021/12/30 07:30:41;;;;;;;0.57;0.50;;;11.40;99.90;;;;;;5033970;28;20032;-77
2021/12/30 07:33:07;;;;;;;1.17;0.75;;;11.40;99.90;;;;;;5033683;28;20075;-75
2021/12/30 07:35:34;;;;;;;0.90;0.80;;;11.40;99.90;;;;;;5033899;28;20132;-75
2021/12/30 07:38:00;;;;;;;1.20;0.70;;;11.40;99.90;;;;;;5032803;28;20037;-82
2021/12/30 07:40:26;;;;;;;1.33;0.70;;;11.50;99.90;;;;;;5032201;28;20025;-80
2021/12/30 07:42:52;;;;;;;2.10;1.37;;;11.50;99.90;;;;;;5031733;28;20457;-73
2021/12/30 07:45:17;;;;;;;0.90;0.80;;;11.50;99.90;;;;;;5032204;28;20041;-74
2021/12/30 07:47:43;;;;;;;0.50;0.50;;;11.50;99.90;;;;;;5028439;28;20462;-75
2021/12/30 07:50:11;;;;;;;0.70;0.70;;;11.50;99.90;;;;;;5024877;28;20026;-74
2021/12/30 07:52:37;;;;;;;0.73;0.70;;;11.60;99.90;;;;;;5032001;28;20578;-75
2021/12/30 07:55:04;;;;;;;1.27;0.70;;;11.50;99.90;;;;;;5033048;28;20025;-74
2021/12/30 07:57:30;;;;;;;0.90;0.70;;;11.60;99.90;;;;;;5036528;28;20022;-78
2021/12/30 07:59:56;;;;;;;2.10;0.60;;;11.60;99.90;;;;;;5030558;28;20406;-80
2021/12/30 08:02:22;;;;;;;1.10;0.80;;;11.60;99.90;;;;;;5047580;28;20017;-79
2021/12/30 08:04:48;;;;;;;0.63;0.63;;;11.60;99.90;;;;;;5031926;28;20025;-75
2021/12/30 08:07:21;;;;;;;0.60;0.60;;;11.70;99.90;;;;;;5031354;28;20032;-78
2021/12/30 08:09:47;;;;;;;0.50;0.50;;;11.60;99.90;;;;;;5028976;28;20175;-79
2021/12/30 08:12:13;;;;;;;1.02;0.60;;;11.60;99.90;;;;;;5030216;28;20396;-79
2021/12/30 08:14:38;;;;;;;1.48;0.70;;;11.60;99.90;;;;;;5030403;28;20466;-79
2021/12/30 08:17:04;;;;;;;0.70;0.50;;;11.50;99.90;;;;;;5029081;28;20025;-79
2021/12/30 08:19:29;;;;;;;0.60;0.60;;;11.60;99.90;;;;;;5020001;28;20034;-79
2021/12/30 08:21:55;;;;;;;1.80;0.68;;;11.70;99.90;;;;;;5026754;28;20033;-79
2021/12/30 08:24:21;;;;;;;0.70;0.60;;;11.70;99.90;;;;;;5028855;28;20046;-78
2021/12/30 08:26:47;;;;;;;1.57;0.70;;;11.70;99.90;;;;;;5029879;28;20029;-79
2021/12/30 08:29:15;;;;;;;1.45;0.60;;;11.70;99.90;;;;;;5029134;28;20112;-78
2021/12/30 08:31:41;;;;;;;1.30;0.60;;;11.70;99.90;;;;;;5030168;28;20032;-75
2021/12/30 08:34:06;;;;;;;0.73;0.63;;;11.60;99.90;;;;;;5030597;28;20030;-75
2021/12/30 08:37:02;;;;;;;0.90;0.80;;;11.70;99.90;;;;;;5036135;28;20021;-77
2021/12/30 08:39:27;;;;;;;0.65;0.63;;;11.70;99.90;;;;;;5019299;28;20045;-75
2021/12/30 08:41:53;;;;;;;5.03;1.17;;;11.70;99.90;;;;;;5031329;28;20058;-75
2021/12/30 08:44:18;;;;;;;0.70;0.52;;;11.70;99.90;;;;;;5038961;28;20116;-76
2021/12/30 08:46:44;;;;;;;0.60;0.60;;;11.70;99.90;;;;;;5034371;28;20032;-76
2021/12/30 08:49:09;;;;;;;1.08;0.80;;;11.70;99.90;;;;;;5052076;28;20120;-76
2021/12/30 08:51:36;;;;;;;0.60;0.60;;;11.80;99.90;;;;;;5041202;28;20029;-75
2021/12/30 08:54:02;;;;;;;2.25;0.95;;;11.80;99.90;;;;;;5033571;28;20070;-76
2021/12/30 08:56:28;;;;;;;0.50;0.50;;;11.80;99.90;;;;;;5036423;28;20075;-75
2021/12/30 08:58:53;;;;;;;1.55;0.90;;;11.70;99.90;;;;;;5037452;28;20553;-75
2021/12/30 09:01:19;;;;;;;2.20;0.70;;;11.80;99.90;;;;;;5050391;28;20033;-75
2021/12/30 09:03:44;;;;;;;0.82;0.70;;;11.80;99.90;;;;;;5050127;28;20107;-76
2021/12/30 09:06:10;;;;;;;1.15;0.50;;;11.80;99.90;;;;;;5037243;28;20381;-76
2021/12/30 09:08:36;;;;;;;1.05;0.60;;;11.80;99.90;;;;;;5053287;28;20040;-76
2021/12/30 09:11:01;;;;;;;1.50;0.68;;;11.80;99.90;;;;;;5051875;28;20088;-76
2021/12/30 09:13:27;;;;;;;0.82;0.70;;;11.90;99.90;;;;;;5052652;28;20432;-76
2021/12/30 09:15:52;;;;;;;1.73;0.75;;;11.90;99.90;;;;;;5051078;28;20055;-76
2021/12/30 09:18:18;;;;;;;1.27;0.88;;;11.90;99.90;;;;;;5037091;28;20852;-76
2021/12/30 09:20:44;;;;;;;0.50;0.47;;;12.10;99.90;;;;;;5033945;28;20033;-76
2021/12/30 09:23:12;;;;;;;1.05;0.75;;;12.10;99.90;;;;;;5034388;28;20116;-76
2021/12/30 09:25:38;;;;;;;1.55;0.68;;;12.20;99.90;;;;;;5033860;28;20024;-75
2021/12/30 09:28:05;;;;;;;1.58;0.82;;;12.20;99.90;;;;;;5044393;28;20036;-76
2021/12/30 09:30:31;;;;;;;0.43;0.43;;;12.10;99.90;;;;;;5042045;28;20056;-76
2021/12/30 09:32:58;;;;;;;0.60;0.60;;;12.10;99.90;;;;;;5025846;28;20037;-78
2021/12/30 09:35:25;;;;;;;0.70;0.70;;;12.20;99.90;;;;;;5034391;28;20033;-79
2021/12/30 09:37:51;;;;;;;0.82;0.70;;;12.10;99.90;;;;;;5048006;28;20025;-76
2021/12/30 09:40:18;;;;;;;0.88;0.60;;;12.20;99.90;;;;;;5038198;28;20048;-78
2021/12/30 09:42:49;;;;;;;1.15;0.80;;;12.20;99.90;;;;;;5038225;28;20042;-78
2021/12/30 09:45:15;;;;;;;1.23;0.70;;;12.20;99.90;;;;;;5017284;28;20030;-78
2021/12/30 09:47:47;;;;;;;0.88;0.60;;;12.40;99.90;;;;;;5013889;28;20036;-78
2021/12/30 09:50:15;;;;;;;0.80;0.63;;;12.40;99.90;;;;;;5025594;28;20096;-78
2021/12/30 09:52:41;;;;;;;1.02;0.80;;;12.30;99.90;;;;;;5047858;28;20025;-83
2021/12/30 09:55:08;;;;;;;0.88;0.77;;;12.30;99.90;;;;;;5034106;28;20031;-85
2021/12/30 09:57:33;;;;;;;0.75;0.70;;;12.50;99.90;;;;;;5031851;28;20470;-79
2021/12/30 09:59:59;;;;;;;0.77;0.65;;;12.40;99.90;;;;;;5037622;28;20083;-77
2021/12/30 10:02:24;;;;;;;0.73;0.70;;;12.50;99.90;;;;;;5048360;28;20025;-80
2021/12/30 10:05:04;;;;;;;1.00;0.60;;;12.40;99.90;;;;;;5032032;28;20030;-78
2021/12/30 10:07:29;;;;;;;1.02;0.70;;;12.40;99.90;;;;;;5033823;28;20030;-80
2021/12/30 10:10:00;;;;;;;1.75;0.70;;;12.50;99.90;;;;;;5045126;28;20025;-79
2021/12/30 10:12:39;;;;;;;0.85;0.68;;;12.50;99.90;;;;;;5033967;28;20108;-80
2021/12/30 10:15:06;;;;;;;2.67;0.70;;;12.50;99.90;;;;;;5018445;28;20058;-79
2021/12/30 10:17:31;;;;;;;1.05;0.63;;;12.60;99.90;;;;;;5020659;28;20021;-80
2021/12/30 10:20:16;;;;;;;0.85;0.60;;;12.60;99.90;;;;;;5032476;28;20071;-80
2021/12/30 10:22:42;;;;;;;1.08;0.55;;;12.60;99.90;;;;;;5032656;28;20026;-80
2021/12/30 10:25:28;;;;;;;1.13;0.70;;;12.60;99.90;;;;;;5032123;28;20017;-80
2021/12/30 10:27:53;;;;;;;1.27;0.60;;;12.70;99.90;;;;;;5017445;28;20029;-80
2021/12/30 10:30:34;;;;;;;1.23;0.77;;;12.80;99.90;;;;;;5035889;28;20087;-78
2021/12/30 10:33:25;;;;;;;1.25;0.68;;;13.10;99.90;;;;;;5032371;28;20033;-77
2021/12/30 10:35:53;;;;;;;0.60;0.50;;;13.20;99.90;;;;;;5041512;28;20380;-75
2021/12/30 10:38:19;;;;;;;2.00;0.70;;;13.20;99.90;;;;;;5030882;28;20029;-75
2021/12/30 10:40:51;;;;;;;0.65;0.65;;;13.20;99.90;;;;;;5030947;28;20021;-80
2021/12/30 10:43:30;;;;;;;0.60;0.60;;;13.30;99.90;;;;;;5026549;28;20041;-80
2021/12/30 10:46:37;;;;;;;0.68;0.60;;;13.20;99.90;;;;;;5030631;28;20420;-78
2021/12/30 10:49:25;;;;;;;0.50;0.50;;;13.30;99.90;;;;;;5025799;28;20038;-78
2021/12/30 10:51:52;;;;;;;1.55;0.68;;;13.40;99.90;;;;;;5031822;28;20029;-78
2021/12/30 10:54:34;;;;;;;1.25;0.60;;;13.50;99.90;;;;;;5028486;28;20029;-78
2021/12/30 10:57:05;;;;;;;1.00;0.73;;;13.60;99.90;;;;;;5020450;28;20033;-78
2021/12/30 10:59:36;;;;;;;1.08;0.60;;;13.60;99.90;;;;;;5018659;28;20116;-78
2021/12/30 11:02:17;;;;;;;0.70;0.60;;;13.60;99.90;;;;;;5010426;28;20037;-78
2021/12/30 11:04:43;;;;;;;0.60;0.60;;;13.60;99.90;;;;;;5011724;28;20467;-78
2021/12/30 11:07:15;;;;;;;1.10;0.88;;;13.50;99.90;;;;;;5011350;28;20037;-78
2021/12/30 11:09:49;;;;;;;0.88;0.80;;;13.50;99.90;;;;;;5011352;28;20026;-78
2021/12/30 11:12:21;;;;;;;1.20;0.70;;;13.70;99.90;;;;;;5011155;28;20022;-78
2021/12/30 11:14:47;;;;;;;0.90;0.75;;;13.80;99.90;;;;;;5011249;28;20037;-78
2021/12/30 11:17:21;;;;;;;1.10;0.70;;;13.80;99.90;;;;;;5009878;28;20025;-78
2021/12/30 11:19:47;;;;;;;1.13;0.70;;;13.80;99.90;;;;;;5011389;28;20105;-78
2021/12/30 11:22:15;;;;;;;0.70;0.60;;;13.80;99.90;;;;;;5011131;28;20026;-78
2021/12/30 11:24:43;;;;;;;1.33;0.80;;;13.70;99.90;;;;;;5010628;28;20479;-77
2021/12/30 11:27:11;;;;;;;1.90;1.20;;;13.80;99.90;;;;;;5011388;28;20033;-77
2021/12/30 11:29:39;;;;;;;2.17;1.33;;;13.70;99.90;;;;;;5011423;28;20034;-76
2021/12/30 11:32:07;;;;;;;1.90;1.35;;;13.80;99.90;;;;;;5011132;28;20148;-77
2021/12/30 11:34:33;;;;;;;3.40;2.03;;;13.80;99.90;;;;;;5011253;28;20068;-76
2021/12/30 11:37:00;;;;;;;2.20;1.50;;;13.80;99.90;;;;;;5011445;28;20513;-78
2021/12/30 11:39:27;;;;;;;3.40;1.80;;;13.80;99.90;;;;;;5011101;28;20033;-78
2021/12/30 11:41:57;;;;;;;3.17;1.85;;;13.80;99.90;;;;;;5013640;28;20072;-78
2021/12/30 11:44:43;;;;;;;3.75;2.33;;;13.70;99.90;;;;;;5019281;28;20038;-78
2021/12/30 11:47:31;;;;;;;4.40;2.88;;;13.70;99.90;;;;;;5011062;28;20040;-78
2021/12/30 11:50:02;;;;;;;4.25;2.42;;;13.80;99.90;;;;;;5010676;28;20025;-78
2021/12/30 11:53:08;;;;;;;3.08;1.90;;;13.80;99.90;;;;;;5010554;28;20042;-78
2021/12/30 11:55:46;;;;;;;2.20;1.35;;;13.80;99.90;;;;;;5010858;28;20022;-78
2021/12/30 11:58:31;;;;;;;1.70;1.10;;;13.80;99.90;;;;;;5010408;28;20030;-78
2021/12/30 12:01:23;;;;;;;1.95;1.00;;;13.80;99.90;;;;;;5018675;28;20033;-83
2021/12/30 12:03:59;;;;;;;1.67;1.20;;;13.90;99.90;;;;;;5025015;28;20052;-79
2021/12/30 12:06:28;;;;;;;2.60;1.45;;;13.90;99.90;;;;;;5028717;28;20030;-79
2021/12/30 12:08:59;;;;;;;1.30;1.10;;;13.90;99.90;;;;;;5026240;28;20490;-79
2021/12/30 12:11:48;;;;;;;2.53;1.40;;;13.80;99.90;;;;;;5008572;28;20101;-79
2021/12/30 12:14:19;;;;;;;2.13;1.20;;;13.90;99.90;;;;;;5007950;28;20014;-79
2021/12/30 12:16:55;;;;;;;2.60;1.48;;;13.90;99.90;;;;;;5007573;28;20022;-79
2021/12/30 12:19:43;;;;;;;2.60;1.50;;;13.80;99.90;;;;;;5007321;28;20037;-79
2021/12/30 12:22:30;;;;;;;1.90;1.27;;;13.80;99.90;;;;;;4997888;28;20042;-79
2021/12/30 12:25:31;;;;;;;1.25;0.90;;;13.80;99.90;;;;;;5007233;28;20155;-79
2021/12/30 12:27:57;;;;;;;0.75;0.70;;;13.80;99.90;;;;;;4946293;29;20043;-78
2021/12/30 12:30:32;;;;;;;2.78;0.80;;;13.70;99.90;;;;;;4994803;28;20038;-79
2021/12/30 12:32:58;;;;;;;;;;;13.70;99.90;;;;;;5007806;28;20798;-79
2021/12/30 12:35:29;;;;;;;0.70;0.68;;;13.70;99.90;;;;;;5007657;28;19917;-79
2021/12/30 12:37:59;;;;;;;2.92;0.85;;;13.80;99.90;;;;;;5005808;28;20034;-78
2021/12/30 12:40:44;;;;;;;1.05;0.70;;;13.90;99.90;;;;;;5022307;28;20026;-78
2021/12/30 12:43:26;;;;;;;1.08;0.70;;;13.90;99.90;;;;;;5017891;28;20125;-81
2021/12/30 12:45:58;;;;;;;1.40;0.80;;;13.90;99.90;;;;;;5007992;28;20667;-81
2021/12/30 12:48:29;;;;;;;0.82;0.70;;;13.90;99.90;;;;;;5008406;28;20093;-81
2021/12/30 12:51:24;;;;;;;0.95;0.75;;;13.90;99.90;;;;;;5008591;28;20442;-81
2021/12/30 12:54:02;;;;;;;1.30;0.80;;;14.10;99.90;;;;;;5007783;28;20034;-81